createdAt,value
2022-10-04T09:02:06.853Z,10.30
2022-10-04T09:04:56.874Z,10.60
2022-10-04T09:07:48.799Z,10.20
2022-10-04T09:10:40.280Z,10.20
2022-10-04T09:13:51.787Z,10.40
2022-10-04T09:16:45.081Z,10.60
2022-10-04T09:19:22.653Z,10.70
2022-10-04T09:21:55.488Z,10.90
2022-10-04T09:24:37.713Z,10.90
2022-10-04T09:27:43.241Z,11.00
2022-10-04T09:30:21.294Z,11.20
2022-10-04T09:33:06.511Z,11.30
2022-10-04T09:36:02.530Z,11.60
2022-10-04T09:39:25.234Z,11.80
2022-10-04T09:42:28.071Z,11.80
2022-10-04T09:45:27.518Z,11.90
2022-10-04T09:48:29.755Z,12.30
2022-10-04T09:51:25.524Z,13.30
2022-10-04T09:54:26.642Z,12.80
2022-10-04T09:57:06.737Z,12.60
2022-10-04T10:00:02.746Z,12.90
2022-10-04T10:03:11.015Z,12.90
2022-10-04T10:06:07.248Z,13.10
2022-10-04T10:08:49.068Z,13.20
2022-10-04T10:11:43.700Z,13.10
2022-10-04T10:14:29.260Z,13.30
2022-10-04T10:17:37.233Z,13.40
2022-10-04T10:20:28.263Z,13.50
2022-10-04T10:23:13.575Z,13.70
2022-10-04T10:26:13.596Z,13.50
2022-10-04T10:29:02.630Z,13.50
2022-10-04T10:31:47.662Z,13.70
2022-10-04T10:34:38.079Z,14.10
2022-10-04T10:37:17.166Z,14.20
2022-10-04T10:39:59.718Z,14.30
2022-10-04T10:42:53.862Z,14.20
2022-10-04T10:45:40.959Z,14.30
2022-10-04T10:48:24.585Z,14.60
2022-10-04T10:51:11.371Z,14.90
2022-10-04T10:54:07.912Z,14.90
2022-10-04T10:56:56.767Z,14.70
2022-10-04T10:59:38.586Z,15.00
2022-10-04T11:02:48.062Z,15.20
2022-10-04T11:05:41.362Z,15.30
2022-10-04T11:08:29.888Z,15.50
2022-10-04T11:11:03.433Z,15.50
2022-10-04T11:14:00.940Z,15.40
2022-10-04T11:16:52.276Z,15.50
2022-10-04T11:19:56.630Z,15.50
2022-10-04T11:22:47.460Z,15.60
2022-10-04T11:25:39.752Z,15.90
2022-10-04T11:28:24.247Z,16.00
2022-10-04T11:31:28.688Z,16.20
2022-10-04T11:34:16.683Z,16.30
2022-10-04T11:37:16.882Z,16.20
2022-10-04T11:40:18.919Z,16.40
2022-10-04T11:42:57.887Z,16.40
2022-10-04T11:45:43.215Z,16.30
2022-10-04T11:48:35.409Z,16.40
2022-10-04T11:51:18.411Z,16.50
2022-10-04T11:54:35.925Z,16.60
2022-10-04T11:57:17.007Z,16.90
2022-10-04T12:00:01.906Z,17.20
2022-10-04T12:02:29.032Z,17.20
2022-10-04T12:05:18.649Z,17.20
2022-10-04T12:07:45.359Z,17.30
2022-10-04T12:10:25.301Z,17.40
2022-10-04T12:13:00.983Z,17.60
2022-10-04T12:15:42.934Z,17.50
2022-10-04T12:18:54.728Z,17.40
2022-10-04T12:21:51.197Z,17.70
2022-10-04T12:24:29.226Z,17.70
2022-10-04T12:27:11.116Z,17.70
2022-10-04T12:30:15.519Z,17.90
2022-10-04T12:32:58.357Z,17.90
2022-10-04T12:35:51.982Z,17.90
2022-10-04T12:38:37.381Z,18.00
2022-10-04T12:41:21.294Z,17.70
2022-10-04T12:44:08.169Z,17.60
2022-10-04T12:46:58.170Z,17.70
2022-10-04T12:50:01.857Z,17.90
2022-10-04T12:52:43.869Z,18.00
2022-10-04T12:55:38.534Z,18.20
2022-10-04T12:58:37.016Z,18.20
2022-10-04T13:01:15.291Z,18.10
2022-10-04T13:04:21.024Z,18.00
2022-10-04T13:06:48.001Z,18.10
2022-10-04T13:09:38.895Z,18.20
2022-10-04T13:12:43.878Z,18.20
2022-10-04T13:22:06.644Z,18.10
2022-10-04T13:24:57.353Z,17.90
2022-10-04T13:27:58.755Z,17.90
2022-10-04T13:34:29.484Z,18.20
2022-10-04T13:37:04.677Z,18.20
2022-10-04T13:40:09.244Z,18.40
2022-10-04T13:43:08.508Z,18.40
2022-10-04T13:45:52.182Z,18.60
2022-10-04T13:48:57.189Z,18.80
2022-10-04T13:51:37.076Z,18.80
2022-10-04T13:54:42.998Z,18.70
2022-10-04T13:57:37.782Z,18.50
2022-10-04T14:00:06.040Z,18.60
2022-10-04T14:03:13.440Z,18.60
2022-10-04T14:05:55.551Z,18.30
2022-10-04T14:08:51.638Z,18.40
2022-10-04T14:11:53.927Z,18.30
2022-10-04T14:15:04.797Z,18.40
2022-10-04T14:18:12.899Z,18.30
2022-10-04T14:21:02.119Z,18.40
